< Typhoon 196122 1961 Season Typhoon 196124 >
Typhoon 196123 (TILDA)
General InformationTrack Information on Google Maps || Disaster Info.ResourceGoogle EarthGE AnimationAtom FeedGeoJSON
Detalied Best Track (Time Zone = UTC)
Year Month Day Hour Lat. Long. Pressure (hPa) Wind (kt) Class Image Chart
1961 9 25 12 11.2 161.3 1006 0 2 -- Chart
1961 9 25 18 12.0 159.3 1004 0 2 -- Chart
1961 9 26 00 13.0 157.5 1004 0 2 -- Chart
1961 9 26 06 14.5 154.8 1002 0 2 -- Chart
1961 9 26 12 15.8 152.0 1004 0 2 -- Chart
1961 9 26 18 16.7 149.5 1000 0 2 -- Chart
1961 9 27 00 17.5 147.5 1000 0 2 -- Chart
1961 9 27 06 18.2 146.3 998 0 2 -- Chart
1961 9 27 12 18.7 144.8 996 0 2 -- Chart
1961 9 27 18 19.3 143.5 994 0 9 -- Chart
1961 9 28 00 19.5 141.6 990 0 9 -- Chart
1961 9 28 06 19.6 140.5 990 0 9 -- Chart
1961 9 28 12 19.6 139.6 980 0 9 -- Chart
1961 9 28 18 19.5 138.9 970 0 9 -- Chart
1961 9 29 00 19.5 138.5 960 0 9 -- Chart
1961 9 29 06 19.7 138.0 950 0 9 -- Chart
1961 9 29 12 20.3 138.0 950 0 9 -- Chart
1961 9 29 18 21.2 137.4 950 0 9 -- Chart
1961 9 30 00 21.8 137.0 925 0 9 -- Chart
1961 9 30 06 23.1 136.9 925 0 9 -- Chart
1961 9 30 12 23.8 136.4 925 0 9 -- Chart
1961 9 30 18 24.3 135.6 925 0 9 -- Chart
1961 10 1 00 24.6 134.7 925 0 9 -- Chart
1961 10 1 06 24.8 133.7 925 0 9 -- Chart
1961 10 1 12 25.0 132.6 925 0 9 -- Chart
1961 10 1 18 25.2 131.4 925 0 9 -- Chart
1961 10 2 00 25.3 130.5 935 0 9 -- Chart
1961 10 2 06 25.6 129.2 935 0 9 -- Chart
1961 10 2 12 25.7 127.7 930 0 9 -- Chart
1961 10 2 18 26.3 126.6 930 0 9 -- Chart
1961 10 3 00 26.5 125.7 940 0 9 -- Chart
1961 10 3 06 26.8 124.5 940 0 9 -- Chart
1961 10 3 12 27.3 123.4 940 0 9 -- Chart
1961 10 3 18 28.0 122.5 940 0 9 -- Chart
1961 10 4 00 28.6 121.8 950 0 9 -- Chart
1961 10 4 06 29.3 121.0 980 0 9 -- Chart
1961 10 4 12 30.3 120.8 990 0 9 -- Chart
1961 10 4 18 31.0 121.0 995 0 9 -- Chart
1961 10 5 00 31.8 121.0 998 0 9 -- Chart
1961 10 5 06 32.4 122.0 998 0 6 -- Chart
1961 10 5 12 33.4 124.6 998 0 6 -- Chart
1961 10 5 18 34.8 128.0 1000 0 6 -- Chart
1961 10 6 00 38.0 134.0 1002 0 6 -- Chart
1961 10 6 06 41.0 138.0 994 0 6 -- Chart
1961 10 6 12 42.0 140.2 988 0 6 -- Chart
1961 10 6 18 45.0 143.0 988 0 6 -- Chart
1961 10 7 00 47.0 144.0 986 0 6 -- Chart
1961 10 7 06 49.0 144.0 984 0 6 -- Chart
1961 10 7 12 51.0 144.2 984 0 6 -- Chart
1961 10 7 18 52.0 144.5 982 0 6 -- Chart
1961 10 8 00 53.0 145.0 982 0 6 -- Chart
1961 10 8 06 54.0 146.0 982 0 6 -- Chart
1961 10 8 12 54.8 148.0 986 0 6 -- Chart
1961 10 8 18 55.5 150.5 994 0 6 -- Chart
1961 10 9 00 56.0 153.0 1000 0 6 -- Chart
1961 10 9 06 56.4 154.3 1004 0 6 -- Chart
1961 10 9 12 56.8 155.5 1006 0 6 -- Chart
Japan Meteorological Agency Best Track Data | Correction Date : 1989-06-01
< Typhoon 196122 1961 Season Typhoon 196124 >

Help